Airfield :
LOGIN :

Register | Disclaimer

   EN    FR    IT 

 










Legend :    VFR   Marginal VFR   IFR   Intensive IFR   Very Intensive IFR
Visi :
Ceiling :
>= 8 km
>= 3000ft
5 to 8 km
1000 to 3000 ft
1500m to 5 km
500 to 1000 ft
800 to 1500m
200 to 500 ft
< 800m
< 200 ft
Symbols :   Thunderstorms  Fog  Heavy snow  Heavy precipitations  Wind > 20 kt
SIGMETs :     Misc.  Thunderstorms  Icing  Turbulence  Mountain Waves  Volcanic Ashes







- Airport Elevation : 856 ft
- IATA code : VGO


LEVX - Vigo Peinador

CURRENT METAR :
  • 191630Z 26010KT 9999 BKN002 FEW040TCU 17/15 Q1016 TEMPO 3000 BR

EXPIRED METARs :
  • 191620Z 26010KT 230V290 9999 BKN002 FEW040TCU 18/15 Q1016 NOSIG
  • 191600Z 26010KT 9999 FEW002 FEW040TCU 19/15 Q1016 NOSIG
  • 191530Z 27010KT 240V300 9999 FEW040TCU 20/15 Q1016 NOSIG
  • 191500Z 26008KT 210V300 9999 FEW040TCU 22/16 Q1016 NOSIG
  • 191430Z 26007KT 200V290 9999 FEW030TCU 22/17 Q1016 NOSIG
  • 191400Z 04003KT 290V100 9999 FEW030TCU 23/17 Q1016 NOSIG

TAF AMD TAF LEVX
Valid from the 19 at 16:00 until the 20 at 12:00 UTC


191626Z 1916/2012 28009KT 8000 FEW030 TX22/2012Z TN14/2006Z
PROB30
TEMPO 1916/1918 SHRA TS SCT030TCU SCT040CB
TEMPO 1916/2012 3000 BR BKN002 BKN005
TEMPO 1916/2011 0350 FG VV001
PROB40
TEMPO 1918/2011 0150 FG VV001
No reported NOTAMs for that airfield.



MET'MAP, your aeronautical weather chart ! - Copyright ORBIFLY December 2007 - Disclaimer

ORBIFLY MET'MAP TEAM :

Programming & Development : Alexandra Zaïnal
Concept & Development : Baudouin d'Aumeries
Co-Development & Prog : Marc-Olivier Méhu
Technical & hardware support : Manuel Goepfert

Contact : metmap@orbifly.com




SOURCES & CREDITS :

   NOAA